Archival Weather

Chicago O'Hare International

Chicago, Illinois (KORD)

Report from: Thursday, November 24, 2022 4:51 PM CST
Current time: Sunday, December 4, 2022 5:37 AM CST

Current weather
Weather history
Weather forecast

Temperature9.4°C (48.9°F)
Wind chill7.5°C (45.4°F)
Dew point3.9°C (39.0°F)
Winds 7 kts (3.6 m/s, 8.1 mph) South-Southwest (200°)
Visibility10 mi. (16.1 km)
Clouds Ceiling: Broken clouds 3,200 ft. (975 m)
Broken clouds 8,000 ft. (2,438 m)
Broken clouds 15,000 ft. (4,572 m)
Altimeter30.04 in.Hg (1017 mB)
Relative humidity69 %
Density altitude-687 ft. (-210 m)
Sea-level pressure101.8 kPa (1018 mB, 30.05 in.Hg)
Remarks System requires maintenance
Automated weather observing station with precipitation discriminator
Flight conditions Visual Meteorological Conditions
Raw dataKORD 242251Z 20007KT 10SM BKN032 BKN080 BKN150 09/04 A3004 RMK AO2 SLP176 T00940039 $
An error has occurred. This application may no longer respond until reloaded. Reload 🗙